Terminal Aerodrome Forecast
Issued by NWS

Home | Current Version | Previous Version | Text Only | Print | Product List | Glossary On
Versions: 1 2 3 4 5 6 7 8 9 10 11 12 13 14 15 16
000
FTUS45 KVEF 261120
TAFVGT
TAF
KVGT 261120Z 2612/2712 15005KT P6SM FEW180
     FM261500 13007KT P6SM FEW120
     FM261900 16011KT P6SM FEW120
     FM262300 18012G20KT P6SM SCT120
     FM270400 18009KT P6SM FEW120 SCT250
     FM271000 34004KT P6SM SCT250=

USA.gov is the U.S. government's official web portal to all federal, state and local government web resources and services.